sensor_id;sensor_type;location;lat;lon;timestamp;pressure;altitude;pressure_sealevel;temperature;humidity
71149;BME280;59072;42.144;25.200;2023-02-02T08:39:23;100242.53;;;9.47;43.51
71149;BME280;59072;42.144;25.200;2023-02-02T08:41:48;100219.44;;;9.14;43.66
71149;BME280;59072;42.144;25.200;2023-02-02T08:44:14;100226.19;;;9.10;43.99
71149;BME280;59072;42.144;25.200;2023-02-02T08:46:41;100211.84;;;9.24;44.26
71149;BME280;59072;42.144;25.200;2023-02-02T08:49:09;100207.56;;;9.10;44.20
71149;BME280;59072;42.144;25.200;2023-02-02T08:51:35;100210.59;;;9.47;44.90
71149;BME280;59072;42.144;25.200;2023-02-02T08:54:01;100230.63;;;9.63;43.37
71149;BME280;59072;42.144;25.200;2023-02-02T08:56:26;100233.84;;;9.78;43.37
71149;BME280;59072;42.144;25.200;2023-02-02T08:58:54;100237.31;;;9.85;42.30
71149;BME280;59072;42.144;25.200;2023-02-02T09:01:25;100228.06;;;10.01;43.30
71149;BME280;59072;42.144;25.200;2023-02-02T09:03:58;100240.97;;;10.50;42.54
71149;BME280;59072;42.144;25.200;2023-02-02T09:06:30;100241.91;;;10.17;40.80
71149;BME280;59072;42.144;25.200;2023-02-02T09:08:56;100240.34;;;10.02;42.03
71149;BME280;59072;42.144;25.200;2023-02-02T09:11:22;100230.41;;;10.23;42.62
71149;BME280;59072;42.144;25.200;2023-02-02T09:13:51;100234.88;;;10.29;41.45
71149;BME280;59072;42.144;25.200;2023-02-02T09:16:19;100229.69;;;10.48;41.88
71149;BME280;59072;42.144;25.200;2023-02-02T09:18:45;100227.81;;;10.55;41.81
71149;BME280;59072;42.144;25.200;2023-02-02T09:21:12;100223.22;;;10.69;40.73
71149;BME280;59072;42.144;25.200;2023-02-02T09:23:40;100216.69;;;10.64;39.53
71149;BME280;59072;42.144;25.200;2023-02-02T09:28:48;100216.50;;;10.59;40.69
71149;BME280;59072;42.144;25.200;2023-02-02T09:31:13;100215.59;;;10.40;40.16
71149;BME280;59072;42.144;25.200;2023-02-02T09:33:39;100211.56;;;10.63;40.11
71149;BME280;59072;42.144;25.200;2023-02-02T09:36:11;100203.78;;;10.86;39.66
71149;BME280;59072;42.144;25.200;2023-02-02T09:38:37;100197.56;;;10.93;39.99
71149;BME280;59072;42.144;25.200;2023-02-02T09:44:28;100186.75;;;10.88;39.39
71149;BME280;59072;42.144;25.200;2023-02-02T09:47:32;100155.34;;;10.90;38.36
71149;BME280;59072;42.144;25.200;2023-02-02T09:50:05;100162.19;;;11.04;38.37
71149;BME280;59072;42.144;25.200;2023-02-02T09:52:57;100147.75;;;11.12;38.72
71149;BME280;59072;42.144;25.200;2023-02-02T09:58:02;100151.97;;;11.75;37.69
71149;BME280;59072;42.144;25.200;2023-02-02T10:00:38;100126.09;;;11.94;38.38
71149;BME280;59072;42.144;25.200;2023-02-02T10:03:22;100143.69;;;11.83;37.61
71149;BME280;59072;42.144;25.200;2023-02-02T10:05:54;100121.56;;;11.76;37.03
71149;BME280;59072;42.144;25.200;2023-02-02T10:08:46;100148.34;;;11.88;36.61
71149;BME280;59072;42.144;25.200;2023-02-02T10:11:36;100121.59;;;11.39;36.96
71149;BME280;59072;42.144;25.200;2023-02-02T10:14:14;100144.78;;;11.94;37.56
71149;BME280;59072;42.144;25.200;2023-02-02T10:16:42;100134.44;;;11.79;36.37
71149;BME280;59072;42.144;25.200;2023-02-02T10:19:13;100137.28;;;11.84;36.56
71149;BME280;59072;42.144;25.200;2023-02-02T10:24:19;100120.09;;;11.61;37.35
71149;BME280;59072;42.144;25.200;2023-02-02T10:26:47;100136.63;;;12.19;36.33
71149;BME280;59072;42.144;25.200;2023-02-02T10:34:42;100112.34;;;12.98;36.77
71149;BME280;59072;42.144;25.200;2023-02-02T10:42:34;100105.78;;;12.70;35.40
71149;BME280;59072;42.144;25.200;2023-02-02T10:45:18;100095.69;;;12.72;35.47
71149;BME280;59072;42.144;25.200;2023-02-02T10:47:44;100096.97;;;12.81;35.27
71149;BME280;59072;42.144;25.200;2023-02-02T10:50:17;100098.13;;;13.33;35.88
71149;BME280;59072;42.144;25.200;2023-02-02T10:52:47;100094.16;;;13.76;35.29
71149;BME280;59072;42.144;25.200;2023-02-02T11:03:12;100077.38;;;13.16;33.91
71149;BME280;59072;42.144;25.200;2023-02-02T11:05:38;100081.28;;;13.90;33.95
71149;BME280;59072;42.144;25.200;2023-02-02T11:10:57;100061.88;;;13.71;32.42
71149;BME280;59072;42.144;25.200;2023-02-02T11:13:39;100055.47;;;14.34;33.06
71149;BME280;59072;42.144;25.200;2023-02-02T11:18:42;100055.53;;;14.05;33.21
71149;BME280;59072;42.144;25.200;2023-02-02T11:21:33;100056.44;;;14.28;33.05
71149;BME280;59072;42.144;25.200;2023-02-02T11:24:04;100043.59;;;14.30;31.73
71149;BME280;59072;42.144;25.200;2023-02-02T11:29:28;100013.53;;;13.94;31.52
71149;BME280;59072;42.144;25.200;2023-02-02T11:31:55;100026.06;;;13.48;31.90
71149;BME280;59072;42.144;25.200;2023-02-02T11:34:23;100015.31;;;14.22;32.58
71149;BME280;59072;42.144;25.200;2023-02-02T11:37:30;100000.44;;;14.15;32.40
71149;BME280;59072;42.144;25.200;2023-02-02T11:40:19;100013.78;;;13.64;33.13
71149;BME280;59072;42.144;25.200;2023-02-02T11:42:48;100009.81;;;13.38;32.93
71149;BME280;59072;42.144;25.200;2023-02-02T11:45:16;99994.44;;;12.93;33.13
71149;BME280;59072;42.144;25.200;2023-02-02T11:47:43;99985.66;;;13.09;33.60
71149;BME280;59072;42.144;25.200;2023-02-02T11:50:18;99952.13;;;12.78;33.76
71149;BME280;59072;42.144;25.200;2023-02-02T11:52:45;99983.75;;;13.62;32.37
71149;BME280;59072;42.144;25.200;2023-02-02T11:55:17;99973.72;;;13.86;32.50
71149;BME280;59072;42.144;25.200;2023-02-02T12:00:49;99975.34;;;14.21;31.78
71149;BME280;59072;42.144;25.200;2023-02-02T12:03:25;99976.03;;;14.67;31.18
71149;BME280;59072;42.144;25.200;2023-02-02T12:05:51;99963.44;;;15.66;30.80
71149;BME280;59072;42.144;25.200;2023-02-02T12:08:16;99945.91;;;15.85;31.09
71149;BME280;59072;42.144;25.200;2023-02-02T12:11:15;99967.91;;;15.55;29.98
71149;BME280;59072;42.144;25.200;2023-02-02T12:16:23;99951.25;;;15.04;30.24
71149;BME280;59072;42.144;25.200;2023-02-02T12:25:08;99932.59;;;13.97;30.83
71149;BME280;59072;42.144;25.200;2023-02-02T12:28:08;99923.81;;;13.85;31.01
71149;BME280;59072;42.144;25.200;2023-02-02T12:34:16;99919.59;;;14.62;29.49
71149;BME280;59072;42.144;25.200;2023-02-02T12:40:00;99944.75;;;14.56;30.15
71149;BME280;59072;42.144;25.200;2023-02-02T13:01:54;99945.53;;;13.38;32.18
71149;BME280;59072;42.144;25.200;2023-02-02T13:12:23;99912.56;;;15.32;29.44
71149;BME280;59072;42.144;25.200;2023-02-02T13:15:05;99924.00;;;16.09;28.90
71149;BME280;59072;42.144;25.200;2023-02-02T13:18:00;99901.03;;;16.97;28.21
71149;BME280;59072;42.144;25.200;2023-02-02T13:22:53;99904.34;;;17.14;27.55
71149;BME280;59072;42.144;25.200;2023-02-02T13:25:34;99921.31;;;16.52;28.04
71149;BME280;59072;42.144;25.200;2023-02-02T13:28:03;99897.97;;;16.20;29.27
71149;BME280;59072;42.144;25.200;2023-02-02T13:30:33;99913.03;;;17.88;27.92
71149;BME280;59072;42.144;25.200;2023-02-02T13:33:05;99917.91;;;18.92;26.05
71149;BME280;59072;42.144;25.200;2023-02-02T13:38:29;99895.34;;;19.17;24.69
71149;BME280;59072;42.144;25.200;2023-02-02T13:41:01;99909.22;;;18.25;26.70
71149;BME280;59072;42.144;25.200;2023-02-02T13:46:38;99897.00;;;16.36;27.87
71149;BME280;59072;42.144;25.200;2023-02-02T13:49:27;99887.28;;;15.55;29.79
71149;BME280;59072;42.144;25.200;2023-02-02T13:52:07;99881.81;;;14.91;29.78
71149;BME280;59072;42.144;25.200;2023-02-02T14:02:20;99875.09;;;13.37;31.74
71149;BME280;59072;42.144;25.200;2023-02-02T14:04:59;99862.56;;;12.97;33.09
71149;BME280;59072;42.144;25.200;2023-02-02T14:10:01;99858.19;;;12.51;34.37
71149;BME280;59072;42.144;25.200;2023-02-02T14:12:32;99868.75;;;12.57;34.59
71149;BME280;59072;42.144;25.200;2023-02-02T14:14:58;99837.47;;;12.58;35.40
71149;BME280;59072;42.144;25.200;2023-02-02T14:19:58;99846.44;;;12.52;35.00
71149;BME280;59072;42.144;25.200;2023-02-02T14:22:43;99862.84;;;12.43;35.55
71149;BME280;59072;42.144;25.200;2023-02-02T14:30:31;99854.50;;;11.69;33.59
71149;BME280;59072;42.144;25.200;2023-02-02T14:44:04;99910.31;;;10.86;42.66
71149;BME280;59072;42.144;25.200;2023-02-02T14:46:36;99892.41;;;10.75;40.28
71149;BME280;59072;42.144;25.200;2023-02-02T14:51:30;99897.63;;;11.00;37.41
71149;BME280;59072;42.144;25.200;2023-02-02T14:53:56;99911.94;;;11.06;38.12
71149;BME280;59072;42.144;25.200;2023-02-02T14:56:43;99914.50;;;11.13;37.91
71149;BME280;59072;42.144;25.200;2023-02-02T15:04:35;99910.94;;;10.70;41.33
71149;BME280;59072;42.144;25.200;2023-02-02T15:09:53;99913.00;;;10.68;41.77
71149;BME280;59072;42.144;25.200;2023-02-02T15:12:42;99921.75;;;10.57;42.27
71149;BME280;59072;42.144;25.200;2023-02-02T15:15:20;99902.22;;;10.44;44.14
71149;BME280;59072;42.144;25.200;2023-02-02T15:18:17;99900.44;;;10.38;44.59
71149;BME280;59072;42.144;25.200;2023-02-02T15:20:51;99910.72;;;10.53;44.65
71149;BME280;59072;42.144;25.200;2023-02-02T15:23:33;99923.66;;;10.50;44.73
71149;BME280;59072;42.144;25.200;2023-02-02T15:26:23;99923.78;;;10.18;44.66
71149;BME280;59072;42.144;25.200;2023-02-02T15:28:59;99920.28;;;9.92;45.87
71149;BME280;59072;42.144;25.200;2023-02-02T15:31:31;99914.22;;;9.85;46.79
71149;BME280;59072;42.144;25.200;2023-02-02T15:34:01;99927.81;;;9.77;47.03
71149;BME280;59072;42.144;25.200;2023-02-02T15:36:35;99910.91;;;9.64;47.43
71149;BME280;59072;42.144;25.200;2023-02-02T15:39:09;99906.38;;;9.40;48.72
71149;BME280;59072;42.144;25.200;2023-02-02T15:41:36;99944.22;;;9.42;49.40
71149;BME280;59072;42.144;25.200;2023-02-02T15:44:20;99920.69;;;9.39;49.27
71149;BME280;59072;42.144;25.200;2023-02-02T15:46:51;99955.38;;;9.57;48.96
71149;BME280;59072;42.144;25.200;2023-02-02T15:51:48;99949.56;;;9.42;48.59
71149;BME280;59072;42.144;25.200;2023-02-02T15:56:49;99987.28;;;9.64;48.60
71149;BME280;59072;42.144;25.200;2023-02-02T15:59:21;99978.63;;;9.75;48.81
71149;BME280;59072;42.144;25.200;2023-02-02T16:02:02;100006.00;;;9.82;48.07
71149;BME280;59072;42.144;25.200;2023-02-02T16:04:37;100000.25;;;9.85;47.76
71149;BME280;59072;42.144;25.200;2023-02-02T16:07:06;100019.47;;;9.94;48.13
71149;BME280;59072;42.144;25.200;2023-02-02T16:09:35;100034.25;;;9.90;48.91
71149;BME280;59072;42.144;25.200;2023-02-02T16:12:02;100042.06;;;9.85;50.19
71149;BME280;59072;42.144;25.200;2023-02-02T16:14:32;100040.97;;;9.99;49.81
71149;BME280;59072;42.144;25.200;2023-02-02T16:17:10;100049.81;;;9.93;49.28
71149;BME280;59072;42.144;25.200;2023-02-02T16:19:38;100045.69;;;9.97;49.85
71149;BME280;59072;42.144;25.200;2023-02-02T16:22:09;100045.84;;;9.71;50.68
71149;BME280;59072;42.144;25.200;2023-02-02T16:24:42;100056.69;;;9.69;50.87
71149;BME280;59072;42.144;25.200;2023-02-02T16:27:15;100083.91;;;9.78;50.65
71149;BME280;59072;42.144;25.200;2023-02-02T16:29:42;100090.28;;;9.70;51.49
71149;BME280;59072;42.144;25.200;2023-02-02T16:32:33;100115.97;;;9.51;52.89
71149;BME280;59072;42.144;25.200;2023-02-02T16:35:01;100137.53;;;9.30;55.67
71149;BME280;59072;42.144;25.200;2023-02-02T16:37:31;100154.53;;;9.15;58.88
71149;BME280;59072;42.144;25.200;2023-02-02T16:40:16;100164.59;;;9.07;60.48
71149;BME280;59072;42.144;25.200;2023-02-02T16:42:42;100173.19;;;8.75;59.23
71149;BME280;59072;42.144;25.200;2023-02-02T16:45:31;100191.25;;;8.12;63.82
71149;BME280;59072;42.144;25.200;2023-02-02T16:53:30;100221.47;;;7.62;67.96
71149;BME280;59072;42.144;25.200;2023-02-02T16:55:55;100210.41;;;7.24;68.23
71149;BME280;59072;42.144;25.200;2023-02-02T16:58:24;100205.75;;;7.04;71.11
71149;BME280;59072;42.144;25.200;2023-02-02T17:01:01;100206.38;;;6.78;71.76
71149;BME280;59072;42.144;25.200;2023-02-02T17:03:31;100207.50;;;6.69;71.55
71149;BME280;59072;42.144;25.200;2023-02-02T17:05:58;100167.25;;;6.59;72.13
71149;BME280;59072;42.144;25.200;2023-02-02T17:08:35;100199.69;;;6.61;72.97
71149;BME280;59072;42.144;25.200;2023-02-02T17:11:05;100208.75;;;6.73;72.62
71149;BME280;59072;42.144;25.200;2023-02-02T17:13:37;100213.19;;;6.66;72.84
71149;BME280;59072;42.144;25.200;2023-02-02T17:16:03;100222.41;;;6.70;71.22
71149;BME280;59072;42.144;25.200;2023-02-02T17:18:30;100198.72;;;6.47;72.61
71149;BME280;59072;42.144;25.200;2023-02-02T17:20:57;100238.25;;;6.85;71.04
71149;BME280;59072;42.144;25.200;2023-02-02T17:23:29;100226.94;;;6.55;71.37
71149;BME280;59072;42.144;25.200;2023-02-02T17:25:55;100244.03;;;6.52;72.35
71149;BME280;59072;42.144;25.200;2023-02-02T17:28:23;100230.41;;;6.55;72.77
71149;BME280;59072;42.144;25.200;2023-02-02T17:30:58;100204.44;;;6.29;74.80
71149;BME280;59072;42.144;25.200;2023-02-02T17:33:27;100218.06;;;6.26;75.03
71149;BME280;59072;42.144;25.200;2023-02-02T17:35:53;100219.19;;;6.17;75.58
71149;BME280;59072;42.144;25.200;2023-02-02T17:38:19;100208.44;;;6.03;77.54
71149;BME280;59072;42.144;25.200;2023-02-02T17:40:46;100224.69;;;6.00;78.31
71149;BME280;59072;42.144;25.200;2023-02-02T17:43:11;100213.38;;;5.77;79.64
71149;BME280;59072;42.144;25.200;2023-02-02T17:45:37;100242.31;;;5.78;79.75
71149;BME280;59072;42.144;25.200;2023-02-02T17:48:04;100234.25;;;5.72;80.55
71149;BME280;59072;42.144;25.200;2023-02-02T17:50:32;100244.69;;;5.73;79.97
71149;BME280;59072;42.144;25.200;2023-02-02T17:52:58;100226.63;;;5.77;79.76
71149;BME280;59072;42.144;25.200;2023-02-02T17:57:51;100189.66;;;5.69;77.72
71149;BME280;59072;42.144;25.200;2023-02-02T18:00:19;100216.94;;;5.69;77.48
71149;BME280;59072;42.144;25.200;2023-02-02T18:02:46;100214.47;;;5.68;78.39
71149;BME280;59072;42.144;25.200;2023-02-02T18:05:12;100184.09;;;5.78;76.52
71149;BME280;59072;42.144;25.200;2023-02-02T18:07:42;100221.56;;;5.82;76.50
71149;BME280;59072;42.144;25.200;2023-02-02T18:10:10;100226.16;;;5.58;79.33
71149;BME280;59072;42.144;25.200;2023-02-02T18:12:36;100222.16;;;5.62;79.34
71149;BME280;59072;42.144;25.200;2023-02-02T18:15:02;100218.47;;;5.34;81.64
71149;BME280;59072;42.144;25.200;2023-02-02T18:17:29;100235.63;;;5.38;84.12
71149;BME280;59072;42.144;25.200;2023-02-02T18:19:55;100231.41;;;5.29;85.74
71149;BME280;59072;42.144;25.200;2023-02-02T18:22:21;100211.91;;;5.30;86.02
71149;BME280;59072;42.144;25.200;2023-02-02T18:24:47;100243.09;;;5.49;85.84
71149;BME280;59072;42.144;25.200;2023-02-02T18:27:13;100233.63;;;5.40;85.89
71149;BME280;59072;42.144;25.200;2023-02-02T18:29:40;100233.63;;;5.40;86.25
71149;BME280;59072;42.144;25.200;2023-02-02T18:32:08;100238.66;;;5.50;86.13
71149;BME280;59072;42.144;25.200;2023-02-02T18:34:34;100235.81;;;5.51;85.53
71149;BME280;59072;42.144;25.200;2023-02-02T18:37:00;100259.19;;;5.62;85.53
71149;BME280;59072;42.144;25.200;2023-02-02T18:39:26;100229.69;;;5.36;86.23
71149;BME280;59072;42.144;25.200;2023-02-02T18:41:51;100231.09;;;5.09;87.19
71149;BME280;59072;42.144;25.200;2023-02-02T18:44:19;100241.09;;;5.21;88.71
71149;BME280;59072;42.144;25.200;2023-02-02T18:46:46;100244.38;;;5.23;88.04
71149;BME280;59072;42.144;25.200;2023-02-02T18:49:12;100232.44;;;5.28;88.60
71149;BME280;59072;42.144;25.200;2023-02-02T18:51:37;100211.13;;;5.06;87.81
71149;BME280;59072;42.144;25.200;2023-02-02T18:54:03;100230.13;;;5.24;87.19
71149;BME280;59072;42.144;25.200;2023-02-02T18:56:29;100219.44;;;5.03;88.58
71149;BME280;59072;42.144;25.200;2023-02-02T18:58:54;100229.22;;;5.17;87.28
71149;BME280;59072;42.144;25.200;2023-02-02T19:01:23;100233.16;;;5.21;87.10
71149;BME280;59072;42.144;25.200;2023-02-02T19:03:52;100224.38;;;5.21;86.98
71149;BME280;59072;42.144;25.200;2023-02-02T19:06:29;100238.53;;;5.43;85.97
71149;BME280;59072;42.144;25.200;2023-02-02T19:09:13;100257.75;;;5.60;83.47
71149;BME280;59072;42.144;25.200;2023-02-02T19:11:44;100236.66;;;5.52;82.03
71149;BME280;59072;42.144;25.200;2023-02-02T19:14:26;100279.88;;;5.74;81.76
71149;BME280;59072;42.144;25.200;2023-02-02T19:16:54;100277.78;;;5.54;81.21
71149;BME280;59072;42.144;25.200;2023-02-02T19:19:25;100264.25;;;5.34;81.37
71149;BME280;59072;42.144;25.200;2023-02-02T19:21:57;100288.00;;;5.57;80.31
71149;BME280;59072;42.144;25.200;2023-02-02T19:24:25;100279.22;;;5.42;80.32
71149;BME280;59072;42.144;25.200;2023-02-02T19:26:51;100270.91;;;5.45;80.22
71149;BME280;59072;42.144;25.200;2023-02-02T19:29:21;100286.53;;;5.55;78.24
71149;BME280;59072;42.144;25.200;2023-02-02T19:32:03;100295.41;;;5.62;76.98
71149;BME280;59072;42.144;25.200;2023-02-02T19:34:35;100261.06;;;5.39;77.07
71149;BME280;59072;42.144;25.200;2023-02-02T19:39:43;100273.13;;;5.56;76.24
71149;BME280;59072;42.144;25.200;2023-02-02T19:42:11;100287.59;;;5.31;77.49
71149;BME280;59072;42.144;25.200;2023-02-02T19:44:37;100273.53;;;5.15;77.83
71149;BME280;59072;42.144;25.200;2023-02-02T19:47:21;100286.31;;;5.27;76.80
71149;BME280;59072;42.144;25.200;2023-02-02T19:49:47;100291.97;;;5.23;76.32
71149;BME280;59072;42.144;25.200;2023-02-02T19:52:21;100276.56;;;5.27;75.85
71149;BME280;59072;42.144;25.200;2023-02-02T19:54:49;100276.19;;;5.30;75.06
71149;BME280;59072;42.144;25.200;2023-02-02T19:57:25;100253.09;;;5.09;74.25
71149;BME280;59072;42.144;25.200;2023-02-02T19:59:56;100263.22;;;5.20;74.43
71149;BME280;59072;42.144;25.200;2023-02-02T20:02:42;100267.38;;;5.15;74.38
71149;BME280;59072;42.144;25.200;2023-02-02T20:05:19;100267.44;;;5.30;74.24
71149;BME280;59072;42.144;25.200;2023-02-02T20:07:47;100251.19;;;5.18;73.18
71149;BME280;59072;42.144;25.200;2023-02-02T20:10:21;100267.06;;;5.18;73.50
71149;BME280;59072;42.144;25.200;2023-02-02T20:12:48;100262.69;;;5.25;73.55
71149;BME280;59072;42.144;25.200;2023-02-02T20:15:26;100276.97;;;5.16;73.37
71149;BME280;59072;42.144;25.200;2023-02-02T20:17:54;100286.09;;;5.13;74.13
71149;BME280;59072;42.144;25.200;2023-02-02T20:20:40;100279.44;;;5.17;72.60
71149;BME280;59072;42.144;25.200;2023-02-02T20:25:54;100254.44;;;5.05;73.13
71149;BME280;59072;42.144;25.200;2023-02-02T20:31:01;100293.00;;;5.14;72.24
71149;BME280;59072;42.144;25.200;2023-02-02T20:33:29;100269.94;;;5.08;72.20
71149;BME280;59072;42.144;25.200;2023-02-02T20:36:00;100279.06;;;5.20;72.04
71149;BME280;59072;42.144;25.200;2023-02-02T20:38:36;100278.09;;;5.21;71.60
71149;BME280;59072;42.144;25.200;2023-02-02T20:41:02;100258.50;;;4.93;71.65
71149;BME280;59072;42.144;25.200;2023-02-02T20:43:30;100270.72;;;4.94;71.12
71149;BME280;59072;42.144;25.200;2023-02-02T20:45:55;100287.16;;;5.04;70.91
71149;BME280;59072;42.144;25.200;2023-02-02T20:48:21;100286.50;;;4.79;71.22
71149;BME280;59072;42.144;25.200;2023-02-02T20:50:48;100267.53;;;4.75;71.39
71149;BME280;59072;42.144;25.200;2023-02-02T20:53:14;100260.03;;;4.64;71.83
71149;BME280;59072;42.144;25.200;2023-02-02T20:55:41;100273.63;;;4.53;71.88
71149;BME280;59072;42.144;25.200;2023-02-02T20:58:07;100281.91;;;4.50;72.19
71149;BME280;59072;42.144;25.200;2023-02-02T21:00:33;100292.13;;;4.53;72.11
71149;BME280;59072;42.144;25.200;2023-02-02T21:02:59;100289.84;;;4.50;72.05
71149;BME280;59072;42.144;25.200;2023-02-02T21:05:24;100288.22;;;4.40;72.62
71149;BME280;59072;42.144;25.200;2023-02-02T21:07:50;100285.09;;;4.37;71.53
71149;BME280;59072;42.144;25.200;2023-02-02T21:10:20;100298.81;;;4.32;71.85
71149;BME280;59072;42.144;25.200;2023-02-02T21:12:46;100285.53;;;4.17;72.05
71149;BME280;59072;42.144;25.200;2023-02-02T21:15:12;100303.09;;;4.41;71.69
71149;BME280;59072;42.144;25.200;2023-02-02T21:17:37;100301.03;;;4.52;70.83
71149;BME280;59072;42.144;25.200;2023-02-02T21:20:05;100297.69;;;4.27;70.98
71149;BME280;59072;42.144;25.200;2023-02-02T21:22:30;100302.81;;;4.28;71.47
71149;BME280;59072;42.144;25.200;2023-02-02T21:24:56;100279.69;;;4.30;70.47
71149;BME280;59072;42.144;25.200;2023-02-02T21:27:21;100272.25;;;4.02;70.67
71149;BME280;59072;42.144;25.200;2023-02-02T21:29:46;100286.88;;;4.13;70.44
71149;BME280;59072;42.144;25.200;2023-02-02T21:32:12;100288.00;;;4.19;70.36
71149;BME280;59072;42.144;25.200;2023-02-02T21:34:37;100290.44;;;4.20;69.68
71149;BME280;59072;42.144;25.200;2023-02-02T21:37:11;100294.91;;;4.20;69.75
71149;BME280;59072;42.144;25.200;2023-02-02T21:39:37;100288.06;;;4.02;70.07
71149;BME280;59072;42.144;25.200;2023-02-02T21:44:31;100292.34;;;4.03;69.12
71149;BME280;59072;42.144;25.200;2023-02-02T21:46:57;100278.53;;;3.93;69.79
71149;BME280;59072;42.144;25.200;2023-02-02T21:49:24;100281.81;;;3.95;69.77
71149;BME280;59072;42.144;25.200;2023-02-02T21:51:51;100290.75;;;3.94;69.38
71149;BME280;59072;42.144;25.200;2023-02-02T21:54:22;100270.47;;;3.87;69.15
71149;BME280;59072;42.144;25.200;2023-02-02T21:56:48;100261.38;;;3.89;68.34
71149;BME280;59072;42.144;25.200;2023-02-02T21:59:16;100298.63;;;4.02;68.05
71149;BME280;59072;42.144;25.200;2023-02-02T22:01:42;100305.34;;;4.13;67.66
71149;BME280;59072;42.144;25.200;2023-02-02T22:04:18;100308.31;;;4.10;67.57
71149;BME280;59072;42.144;25.200;2023-02-02T22:06:47;100292.31;;;4.12;67.69
71149;BME280;59072;42.144;25.200;2023-02-02T22:11:49;100303.19;;;4.17;66.34
71149;BME280;59072;42.144;25.200;2023-02-02T22:16:43;100265.66;;;3.98;66.35
71149;BME280;59072;42.144;25.200;2023-02-02T22:19:23;100277.84;;;3.99;67.61
71149;BME280;59072;42.144;25.200;2023-02-02T22:21:49;100254.81;;;3.85;67.46
71149;BME280;59072;42.144;25.200;2023-02-02T22:24:15;100273.25;;;3.93;67.56
71149;BME280;59072;42.144;25.200;2023-02-02T22:26:42;100262.09;;;3.75;67.99
71149;BME280;59072;42.144;25.200;2023-02-02T22:29:16;100289.44;;;3.82;67.90
71149;BME280;59072;42.144;25.200;2023-02-02T22:31:44;100270.16;;;3.81;67.95
71149;BME280;59072;42.144;25.200;2023-02-02T22:34:10;100299.63;;;3.93;67.80
71149;BME280;59072;42.144;25.200;2023-02-02T22:36:35;100284.81;;;3.84;66.59
71149;BME280;59072;42.144;25.200;2023-02-02T22:39:01;100257.31;;;3.78;66.50
71149;BME280;59072;42.144;25.200;2023-02-02T22:41:26;100268.97;;;3.84;65.81
71149;BME280;59072;42.144;25.200;2023-02-02T22:43:52;100301.56;;;4.08;65.88
71149;BME280;59072;42.144;25.200;2023-02-02T22:46:19;100302.72;;;4.05;65.71
71149;BME280;59072;42.144;25.200;2023-02-02T22:48:47;100291.56;;;3.95;65.86
71149;BME280;59072;42.144;25.200;2023-02-02T22:51:13;100288.25;;;3.93;66.53
71149;BME280;59072;42.144;25.200;2023-02-02T22:53:38;100282.19;;;3.76;66.14
71149;BME280;59072;42.144;25.200;2023-02-02T22:56:04;100271.22;;;3.56;66.95
71149;BME280;59072;42.144;25.200;2023-02-02T22:58:29;100283.50;;;3.80;66.66
71149;BME280;59072;42.144;25.200;2023-02-02T23:00:57;100296.38;;;3.83;65.90
71149;BME280;59072;42.144;25.200;2023-02-02T23:03:23;100302.63;;;3.82;66.40
71149;BME280;59072;42.144;25.200;2023-02-02T23:05:48;100299.00;;;3.83;66.53
71149;BME280;59072;42.144;25.200;2023-02-02T23:08:13;100265.38;;;3.77;66.76
71149;BME280;59072;42.144;25.200;2023-02-02T23:10:39;100293.06;;;3.81;67.08
71149;BME280;59072;42.144;25.200;2023-02-02T23:13:05;100304.59;;;3.80;66.21
71149;BME280;59072;42.144;25.200;2023-02-02T23:15:30;100314.19;;;3.73;66.95
71149;BME280;59072;42.144;25.200;2023-02-02T23:17:56;100287.00;;;3.72;66.22
71149;BME280;59072;42.144;25.200;2023-02-02T23:20:22;100301.97;;;3.80;66.73
71149;BME280;59072;42.144;25.200;2023-02-02T23:22:48;100307.13;;;3.65;67.22
71149;BME280;59072;42.144;25.200;2023-02-02T23:25:14;100313.53;;;3.79;66.34
71149;BME280;59072;42.144;25.200;2023-02-02T23:27:40;100303.28;;;3.76;67.15
71149;BME280;59072;42.144;25.200;2023-02-02T23:30:07;100299.38;;;3.63;67.32
71149;BME280;59072;42.144;25.200;2023-02-02T23:32:33;100306.94;;;3.67;67.13
71149;BME280;59072;42.144;25.200;2023-02-02T23:34:59;100286.50;;;3.69;67.08
71149;BME280;59072;42.144;25.200;2023-02-02T23:37:24;100279.94;;;3.56;67.12
71149;BME280;59072;42.144;25.200;2023-02-02T23:39:50;100277.94;;;3.67;66.36
71149;BME280;59072;42.144;25.200;2023-02-02T23:42:15;100272.16;;;3.63;66.84
71149;BME280;59072;42.144;25.200;2023-02-02T23:44:43;100263.75;;;3.68;66.13
71149;BME280;59072;42.144;25.200;2023-02-02T23:47:08;100279.56;;;3.76;66.34
71149;BME280;59072;42.144;25.200;2023-02-02T23:49:34;100275.44;;;3.73;65.78
71149;BME280;59072;42.144;25.200;2023-02-02T23:52:00;100282.53;;;3.73;66.40
71149;BME280;59072;42.144;25.200;2023-02-02T23:54:26;100273.28;;;3.85;66.26
71149;BME280;59072;42.144;25.200;2023-02-02T23:56:52;100268.00;;;3.85;65.53
71149;BME280;59072;42.144;25.200;2023-02-02T23:59:17;100283.81;;;3.93;66.12
